KIZG

Eastern Slopes Regional Airport

Fryeburg, Maine, USA
METAR KIZG 260254Z AUTO 00000KT 7SM SCT005 BKN010 OVC018 M01/M01 A3003 RMK AO2 SLP174 I1001 I3003 T10111011 58014
Observed Flight Rules
Feb-26 @ 02:54 UTC (23 minutes ago) Marginal Visual Flight Rules
Wind Visibility Clouds
Calm 7 miles
  • Scattered at 500' AGL
  • Broken at 1,000' AGL
  • Overcast at 1,800' AGL
Temperatures Readings
Current -1°C / 30°F
Dewpoint -1°C / 30°F
Humidity 100%
Altimeter 30.03" Hg
Pressure 1017.4 hPa
Elevation 135
METAR KIZG 260254Z AUTO 00000KT 7SM SCT005 BKN010 OVC018 M01/M01 A3003 RMK AO2 SLP174 I1001 I3003 T10111011 58014
Observed Flight Rules
Feb-26 @ 02:54 UTC
(23 minutes ago)
MVFR
Wind Visibility
Calm 7 miles
Clouds
  • Scattered at 500' AGL
  • Broken at 1,000' AGL
  • Overcast at 1,800' AGL
Temperature Dewpoint
-1°C / 30°F -1°C / 30°F
Humidity Altimeter Pressure
100% 30.03" Hg 1017.4 hPa